sensor_id;sensor_type;location;lat;lon;timestamp;P1;durP1;ratioP1;P2;durP2;ratioP2
68386;SDS011;55338;43.062;25.624;2023-02-01T00:01:53;6.15;;;2.80;;
68386;SDS011;55338;43.062;25.624;2023-02-01T00:04:20;6.25;;;2.42;;
68386;SDS011;55338;43.062;25.624;2023-02-01T00:06:46;6.60;;;2.70;;
68386;SDS011;55338;43.062;25.624;2023-02-01T00:09:12;7.37;;;2.90;;
68386;SDS011;55338;43.062;25.624;2023-02-01T00:11:38;5.90;;;2.60;;
68386;SDS011;55338;43.062;25.624;2023-02-01T00:14:04;7.50;;;3.38;;
68386;SDS011;55338;43.062;25.624;2023-02-01T00:16:31;5.55;;;2.33;;
68386;SDS011;55338;43.062;25.624;2023-02-01T00:19:01;7.27;;;3.13;;
68386;SDS011;55338;43.062;25.624;2023-02-01T00:21:29;6.13;;;3.28;;
68386;SDS011;55338;43.062;25.624;2023-02-01T00:23:56;7.75;;;3.40;;
68386;SDS011;55338;43.062;25.624;2023-02-01T00:29:01;8.90;;;3.33;;
68386;SDS011;55338;43.062;25.624;2023-02-01T00:31:29;7.93;;;3.10;;
68386;SDS011;55338;43.062;25.624;2023-02-01T00:33:55;6.15;;;2.83;;
68386;SDS011;55338;43.062;25.624;2023-02-01T00:36:20;8.63;;;3.70;;
68386;SDS011;55338;43.062;25.624;2023-02-01T00:38:46;6.68;;;3.38;;
68386;SDS011;55338;43.062;25.624;2023-02-01T00:41:13;7.17;;;3.27;;
68386;SDS011;55338;43.062;25.624;2023-02-01T00:43:40;8.32;;;3.17;;
68386;SDS011;55338;43.062;25.624;2023-02-01T00:46:06;5.35;;;2.63;;
68386;SDS011;55338;43.062;25.624;2023-02-01T00:48:32;7.10;;;2.92;;
68386;SDS011;55338;43.062;25.624;2023-02-01T00:50:59;7.23;;;3.37;;
68386;SDS011;55338;43.062;25.624;2023-02-01T00:53:29;7.18;;;3.17;;
68386;SDS011;55338;43.062;25.624;2023-02-01T00:55:55;6.60;;;3.17;;
68386;SDS011;55338;43.062;25.624;2023-02-01T00:58:21;7.45;;;3.50;;
68386;SDS011;55338;43.062;25.624;2023-02-01T01:00:59;6.10;;;3.08;;
68386;SDS011;55338;43.062;25.624;2023-02-01T01:03:25;6.83;;;2.40;;
68386;SDS011;55338;43.062;25.624;2023-02-01T01:05:51;4.47;;;2.17;;
68386;SDS011;55338;43.062;25.624;2023-02-01T01:08:22;6.85;;;2.75;;
68386;SDS011;55338;43.062;25.624;2023-02-01T01:10:48;6.43;;;2.30;;
68386;SDS011;55338;43.062;25.624;2023-02-01T01:13:14;4.40;;;2.08;;
68386;SDS011;55338;43.062;25.624;2023-02-01T01:15:40;6.30;;;2.00;;
68386;SDS011;55338;43.062;25.624;2023-02-01T01:18:07;6.55;;;1.88;;
68386;SDS011;55338;43.062;25.624;2023-02-01T01:20:33;6.10;;;2.10;;
68386;SDS011;55338;43.062;25.624;2023-02-01T01:23:01;5.95;;;2.40;;
68386;SDS011;55338;43.062;25.624;2023-02-01T01:25:27;5.32;;;2.25;;
68386;SDS011;55338;43.062;25.624;2023-02-01T01:27:52;3.85;;;1.90;;
68386;SDS011;55338;43.062;25.624;2023-02-01T01:30:18;4.70;;;1.80;;
68386;SDS011;55338;43.062;25.624;2023-02-01T01:32:44;5.65;;;2.15;;
68386;SDS011;55338;43.062;25.624;2023-02-01T01:35:10;4.87;;;2.03;;
68386;SDS011;55338;43.062;25.624;2023-02-01T01:37:36;7.47;;;2.58;;
68386;SDS011;55338;43.062;25.624;2023-02-01T01:40:03;4.93;;;2.00;;
68386;SDS011;55338;43.062;25.624;2023-02-01T01:42:30;5.70;;;2.33;;
68386;SDS011;55338;43.062;25.624;2023-02-01T01:47:31;5.80;;;2.17;;
68386;SDS011;55338;43.062;25.624;2023-02-01T01:50:05;6.03;;;2.17;;
68386;SDS011;55338;43.062;25.624;2023-02-01T01:52:35;7.25;;;1.98;;
68386;SDS011;55338;43.062;25.624;2023-02-01T01:55:02;7.43;;;2.75;;
68386;SDS011;55338;43.062;25.624;2023-02-01T01:57:31;7.43;;;2.85;;
68386;SDS011;55338;43.062;25.624;2023-02-01T02:00:14;6.15;;;2.42;;
68386;SDS011;55338;43.062;25.624;2023-02-01T02:02:43;6.30;;;2.40;;
68386;SDS011;55338;43.062;25.624;2023-02-01T02:05:11;5.60;;;2.38;;
68386;SDS011;55338;43.062;25.624;2023-02-01T02:07:40;5.63;;;2.50;;
68386;SDS011;55338;43.062;25.624;2023-02-01T02:10:09;4.97;;;2.17;;
68386;SDS011;55338;43.062;25.624;2023-02-01T02:12:42;4.70;;;2.13;;
68386;SDS011;55338;43.062;25.624;2023-02-01T02:15:12;4.33;;;1.80;;
68386;SDS011;55338;43.062;25.624;2023-02-01T02:17:44;5.70;;;2.00;;
68386;SDS011;55338;43.062;25.624;2023-02-01T02:28:40;5.60;;;1.63;;
68386;SDS011;55338;43.062;25.624;2023-02-01T02:34:29;7.47;;;1.98;;
68386;SDS011;55338;43.062;25.624;2023-02-01T02:37:18;3.83;;;1.27;;
68386;SDS011;55338;43.062;25.624;2023-02-01T02:40:04;6.40;;;1.52;;
68386;SDS011;55338;43.062;25.624;2023-02-01T02:45:29;4.45;;;1.48;;
68386;SDS011;55338;43.062;25.624;2023-02-01T02:54:13;3.95;;;1.35;;
68386;SDS011;55338;43.062;25.624;2023-02-01T02:57:02;5.17;;;1.73;;
68386;SDS011;55338;43.062;25.624;2023-02-01T02:59:50;4.30;;;1.80;;
68386;SDS011;55338;43.062;25.624;2023-02-01T03:02:36;4.15;;;1.60;;
68386;SDS011;55338;43.062;25.624;2023-02-01T03:05:21;5.28;;;1.73;;
68386;SDS011;55338;43.062;25.624;2023-02-01T03:07:55;5.80;;;1.85;;
68386;SDS011;55338;43.062;25.624;2023-02-01T03:13:15;3.83;;;1.40;;
68386;SDS011;55338;43.062;25.624;2023-02-01T03:21:12;4.43;;;1.40;;
68386;SDS011;55338;43.062;25.624;2023-02-01T03:23:44;5.37;;;1.40;;
68386;SDS011;55338;43.062;25.624;2023-02-01T03:26:12;3.70;;;1.30;;
68386;SDS011;55338;43.062;25.624;2023-02-01T03:28:43;2.92;;;1.00;;
68386;SDS011;55338;43.062;25.624;2023-02-01T03:31:15;4.55;;;1.50;;
68386;SDS011;55338;43.062;25.624;2023-02-01T03:33:41;6.57;;;1.63;;
68386;SDS011;55338;43.062;25.624;2023-02-01T03:38:48;5.05;;;1.45;;
68386;SDS011;55338;43.062;25.624;2023-02-01T03:45:01;5.20;;;2.35;;
68386;SDS011;55338;43.062;25.624;2023-02-01T03:47:27;4.30;;;1.63;;
68386;SDS011;55338;43.062;25.624;2023-02-01T03:50:02;4.78;;;1.60;;
68386;SDS011;55338;43.062;25.624;2023-02-01T03:53:05;4.68;;;1.65;;
68386;SDS011;55338;43.062;25.624;2023-02-01T03:55:44;7.22;;;2.05;;
68386;SDS011;55338;43.062;25.624;2023-02-01T03:58:18;3.90;;;1.63;;
68386;SDS011;55338;43.062;25.624;2023-02-01T04:00:46;8.53;;;2.00;;
68386;SDS011;55338;43.062;25.624;2023-02-01T04:03:19;5.20;;;1.90;;
68386;SDS011;55338;43.062;25.624;2023-02-01T04:05:46;5.85;;;2.40;;
68386;SDS011;55338;43.062;25.624;2023-02-01T04:08:16;4.78;;;1.88;;
68386;SDS011;55338;43.062;25.624;2023-02-01T04:10:43;7.55;;;2.33;;
68386;SDS011;55338;43.062;25.624;2023-02-01T04:13:09;6.53;;;2.20;;
68386;SDS011;55338;43.062;25.624;2023-02-01T04:15:35;5.47;;;2.08;;
68386;SDS011;55338;43.062;25.624;2023-02-01T04:18:00;7.13;;;1.93;;
68386;SDS011;55338;43.062;25.624;2023-02-01T04:20:26;4.68;;;1.80;;
68386;SDS011;55338;43.062;25.624;2023-02-01T04:22:52;6.43;;;2.10;;
68386;SDS011;55338;43.062;25.624;2023-02-01T04:25:18;5.03;;;2.25;;
68386;SDS011;55338;43.062;25.624;2023-02-01T04:27:44;6.53;;;2.10;;
68386;SDS011;55338;43.062;25.624;2023-02-01T04:30:11;6.45;;;2.35;;
68386;SDS011;55338;43.062;25.624;2023-02-01T04:32:38;8.43;;;2.22;;
68386;SDS011;55338;43.062;25.624;2023-02-01T04:35:04;8.77;;;2.80;;
68386;SDS011;55338;43.062;25.624;2023-02-01T04:37:30;10.33;;;2.47;;
68386;SDS011;55338;43.062;25.624;2023-02-01T04:39:56;5.53;;;2.20;;
68386;SDS011;55338;43.062;25.624;2023-02-01T04:42:22;6.57;;;2.42;;
68386;SDS011;55338;43.062;25.624;2023-02-01T04:44:47;8.10;;;2.75;;
68386;SDS011;55338;43.062;25.624;2023-02-01T04:47:13;6.70;;;2.27;;
68386;SDS011;55338;43.062;25.624;2023-02-01T04:49:40;5.80;;;2.33;;
68386;SDS011;55338;43.062;25.624;2023-02-01T04:52:06;6.15;;;2.38;;
68386;SDS011;55338;43.062;25.624;2023-02-01T04:54:32;8.55;;;2.80;;
68386;SDS011;55338;43.062;25.624;2023-02-01T04:56:58;4.93;;;2.40;;
68386;SDS011;55338;43.062;25.624;2023-02-01T04:59:26;6.50;;;2.60;;
68386;SDS011;55338;43.062;25.624;2023-02-01T05:01:51;4.95;;;2.35;;
68386;SDS011;55338;43.062;25.624;2023-02-01T05:04:17;5.53;;;2.30;;
68386;SDS011;55338;43.062;25.624;2023-02-01T05:06:44;6.25;;;2.33;;
68386;SDS011;55338;43.062;25.624;2023-02-01T05:09:10;7.28;;;2.50;;
68386;SDS011;55338;43.062;25.624;2023-02-01T05:11:36;7.93;;;2.80;;
68386;SDS011;55338;43.062;25.624;2023-02-01T05:14:20;8.03;;;2.77;;
68386;SDS011;55338;43.062;25.624;2023-02-01T05:16:45;12.43;;;2.70;;
68386;SDS011;55338;43.062;25.624;2023-02-01T05:19:11;6.97;;;2.85;;
68386;SDS011;55338;43.062;25.624;2023-02-01T05:21:37;9.13;;;2.80;;
68386;SDS011;55338;43.062;25.624;2023-02-01T05:24:03;7.60;;;3.33;;
68386;SDS011;55338;43.062;25.624;2023-02-01T05:26:35;11.02;;;3.50;;
68386;SDS011;55338;43.062;25.624;2023-02-01T05:29:02;10.73;;;2.93;;
68386;SDS011;55338;43.062;25.624;2023-02-01T05:31:29;6.60;;;2.50;;
68386;SDS011;55338;43.062;25.624;2023-02-01T05:33:54;7.50;;;3.15;;
68386;SDS011;55338;43.062;25.624;2023-02-01T05:36:20;11.67;;;3.30;;
68386;SDS011;55338;43.062;25.624;2023-02-01T05:38:46;5.80;;;2.55;;
68386;SDS011;55338;43.062;25.624;2023-02-01T05:41:12;6.17;;;3.20;;
68386;SDS011;55338;43.062;25.624;2023-02-01T05:43:37;8.40;;;3.17;;
68386;SDS011;55338;43.062;25.624;2023-02-01T05:46:03;7.03;;;3.37;;
68386;SDS011;55338;43.062;25.624;2023-02-01T05:48:29;10.35;;;3.95;;
68386;SDS011;55338;43.062;25.624;2023-02-01T05:50:55;14.57;;;5.32;;
68386;SDS011;55338;43.062;25.624;2023-02-01T05:53:21;14.17;;;6.63;;
68386;SDS011;55338;43.062;25.624;2023-02-01T05:55:47;13.38;;;6.05;;
68386;SDS011;55338;43.062;25.624;2023-02-01T05:58:12;14.98;;;6.13;;
68386;SDS011;55338;43.062;25.624;2023-02-01T06:00:38;13.70;;;5.53;;
68386;SDS011;55338;43.062;25.624;2023-02-01T06:03:05;13.50;;;4.78;;
68386;SDS011;55338;43.062;25.624;2023-02-01T06:05:30;12.10;;;5.28;;
68386;SDS011;55338;43.062;25.624;2023-02-01T06:07:57;14.38;;;4.50;;
68386;SDS011;55338;43.062;25.624;2023-02-01T06:10:23;12.20;;;5.55;;
68386;SDS011;55338;43.062;25.624;2023-02-01T06:12:49;9.93;;;4.83;;
68386;SDS011;55338;43.062;25.624;2023-02-01T06:15:15;9.88;;;4.82;;
68386;SDS011;55338;43.062;25.624;2023-02-01T06:17:41;10.93;;;4.90;;
68386;SDS011;55338;43.062;25.624;2023-02-01T06:20:09;11.00;;;4.70;;
68386;SDS011;55338;43.062;25.624;2023-02-01T06:22:37;12.52;;;4.07;;
68386;SDS011;55338;43.062;25.624;2023-02-01T06:25:03;10.25;;;4.32;;
68386;SDS011;55338;43.062;25.624;2023-02-01T06:27:30;10.02;;;4.50;;
68386;SDS011;55338;43.062;25.624;2023-02-01T06:29:57;17.88;;;6.38;;
68386;SDS011;55338;43.062;25.624;2023-02-01T06:32:22;12.07;;;5.43;;
68386;SDS011;55338;43.062;25.624;2023-02-01T06:34:49;14.23;;;7.40;;
68386;SDS011;55338;43.062;25.624;2023-02-01T06:37:21;19.85;;;9.20;;
68386;SDS011;55338;43.062;25.624;2023-02-01T06:39:49;18.87;;;8.57;;
68386;SDS011;55338;43.062;25.624;2023-02-01T06:42:15;22.08;;;9.38;;
68386;SDS011;55338;43.062;25.624;2023-02-01T06:44:41;22.55;;;9.98;;
68386;SDS011;55338;43.062;25.624;2023-02-01T06:47:07;23.58;;;10.05;;
68386;SDS011;55338;43.062;25.624;2023-02-01T06:49:33;18.35;;;8.82;;
68386;SDS011;55338;43.062;25.624;2023-02-01T06:51:58;18.23;;;9.37;;
68386;SDS011;55338;43.062;25.624;2023-02-01T06:54:27;30.20;;;10.27;;
68386;SDS011;55338;43.062;25.624;2023-02-01T06:56:54;15.02;;;7.00;;
68386;SDS011;55338;43.062;25.624;2023-02-01T06:59:20;18.38;;;7.40;;
68386;SDS011;55338;43.062;25.624;2023-02-01T07:01:46;11.27;;;5.53;;
68386;SDS011;55338;43.062;25.624;2023-02-01T07:04:12;12.68;;;6.20;;
68386;SDS011;55338;43.062;25.624;2023-02-01T07:06:38;12.93;;;5.90;;
68386;SDS011;55338;43.062;25.624;2023-02-01T07:09:05;9.73;;;4.72;;
68386;SDS011;55338;43.062;25.624;2023-02-01T07:11:31;13.60;;;5.47;;
68386;SDS011;55338;43.062;25.624;2023-02-01T07:13:58;7.32;;;4.20;;
68386;SDS011;55338;43.062;25.624;2023-02-01T07:16:27;10.20;;;5.00;;
68386;SDS011;55338;43.062;25.624;2023-02-01T07:18:54;12.90;;;5.13;;
68386;SDS011;55338;43.062;25.624;2023-02-01T07:21:20;10.15;;;4.28;;
68386;SDS011;55338;43.062;25.624;2023-02-01T07:23:47;11.45;;;5.00;;
68386;SDS011;55338;43.062;25.624;2023-02-01T07:26:13;9.45;;;4.00;;
68386;SDS011;55338;43.062;25.624;2023-02-01T07:28:40;8.80;;;3.97;;
68386;SDS011;55338;43.062;25.624;2023-02-01T07:31:16;9.63;;;3.95;;
68386;SDS011;55338;43.062;25.624;2023-02-01T07:33:44;9.13;;;3.85;;
68386;SDS011;55338;43.062;25.624;2023-02-01T07:36:11;9.63;;;3.70;;
68386;SDS011;55338;43.062;25.624;2023-02-01T07:38:37;8.85;;;4.30;;
68386;SDS011;55338;43.062;25.624;2023-02-01T07:41:04;10.53;;;4.20;;
68386;SDS011;55338;43.062;25.624;2023-02-01T07:43:30;9.30;;;3.63;;
68386;SDS011;55338;43.062;25.624;2023-02-01T07:45:58;3.72;;;1.67;;
68386;SDS011;55338;43.062;25.624;2023-02-01T07:48:24;7.00;;;3.30;;
68386;SDS011;55338;43.062;25.624;2023-02-01T07:51:01;8.10;;;3.15;;
68386;SDS011;55338;43.062;25.624;2023-02-01T07:53:33;6.82;;;2.70;;
68386;SDS011;55338;43.062;25.624;2023-02-01T07:55:59;8.40;;;3.55;;
68386;SDS011;55338;43.062;25.624;2023-02-01T07:58:26;7.43;;;3.10;;
68386;SDS011;55338;43.062;25.624;2023-02-01T08:00:55;8.02;;;3.05;;
68386;SDS011;55338;43.062;25.624;2023-02-01T08:03:40;6.18;;;2.60;;
68386;SDS011;55338;43.062;25.624;2023-02-01T08:06:06;6.72;;;3.35;;
68386;SDS011;55338;43.062;25.624;2023-02-01T08:08:37;10.40;;;3.88;;
68386;SDS011;55338;43.062;25.624;2023-02-01T08:11:04;11.63;;;5.60;;
68386;SDS011;55338;43.062;25.624;2023-02-01T08:13:32;6.25;;;2.95;;
68386;SDS011;55338;43.062;25.624;2023-02-01T08:16:00;9.30;;;5.40;;
68386;SDS011;55338;43.062;25.624;2023-02-01T08:18:26;10.18;;;4.30;;
68386;SDS011;55338;43.062;25.624;2023-02-01T08:20:52;10.98;;;5.53;;
68386;SDS011;55338;43.062;25.624;2023-02-01T08:23:19;5.47;;;2.60;;
68386;SDS011;55338;43.062;25.624;2023-02-01T08:25:45;9.07;;;4.72;;
68386;SDS011;55338;43.062;25.624;2023-02-01T08:28:11;5.32;;;2.30;;
68386;SDS011;55338;43.062;25.624;2023-02-01T08:30:37;9.13;;;4.10;;
68386;SDS011;55338;43.062;25.624;2023-02-01T08:33:04;4.65;;;2.30;;
68386;SDS011;55338;43.062;25.624;2023-02-01T08:35:32;4.87;;;1.60;;
68386;SDS011;55338;43.062;25.624;2023-02-01T08:38:00;4.93;;;2.20;;
68386;SDS011;55338;43.062;25.624;2023-02-01T08:40:25;4.65;;;2.33;;
68386;SDS011;55338;43.062;25.624;2023-02-01T08:42:51;3.95;;;1.67;;
68386;SDS011;55338;43.062;25.624;2023-02-01T08:45:21;4.53;;;1.83;;
68386;SDS011;55338;43.062;25.624;2023-02-01T08:47:49;5.80;;;1.85;;
68386;SDS011;55338;43.062;25.624;2023-02-01T08:50:16;5.07;;;2.17;;
68386;SDS011;55338;43.062;25.624;2023-02-01T08:52:42;6.65;;;2.05;;
68386;SDS011;55338;43.062;25.624;2023-02-01T08:55:08;6.30;;;2.23;;
68386;SDS011;55338;43.062;25.624;2023-02-01T08:57:35;8.50;;;2.72;;
68386;SDS011;55338;43.062;25.624;2023-02-01T09:00:01;8.18;;;1.70;;
68386;SDS011;55338;43.062;25.624;2023-02-01T09:02:30;10.23;;;2.67;;
68386;SDS011;55338;43.062;25.624;2023-02-01T09:04:56;11.02;;;2.85;;
68386;SDS011;55338;43.062;25.624;2023-02-01T09:07:22;5.85;;;2.17;;
68386;SDS011;55338;43.062;25.624;2023-02-01T09:09:48;10.37;;;2.23;;
68386;SDS011;55338;43.062;25.624;2023-02-01T09:12:13;8.38;;;2.13;;
68386;SDS011;55338;43.062;25.624;2023-02-01T09:14:39;9.60;;;2.85;;
68386;SDS011;55338;43.062;25.624;2023-02-01T09:17:09;7.93;;;2.25;;
68386;SDS011;55338;43.062;25.624;2023-02-01T09:19:34;10.80;;;2.03;;
68386;SDS011;55338;43.062;25.624;2023-02-01T09:22:00;9.85;;;2.17;;
68386;SDS011;55338;43.062;25.624;2023-02-01T09:24:26;4.50;;;1.83;;
68386;SDS011;55338;43.062;25.624;2023-02-01T09:26:52;5.18;;;2.63;;
68386;SDS011;55338;43.062;25.624;2023-02-01T09:29:18;10.10;;;2.30;;
68386;SDS011;55338;43.062;25.624;2023-02-01T09:31:44;6.30;;;2.00;;
68386;SDS011;55338;43.062;25.624;2023-02-01T09:34:10;7.60;;;1.88;;
68386;SDS011;55338;43.062;25.624;2023-02-01T09:36:36;4.05;;;1.90;;
68386;SDS011;55338;43.062;25.624;2023-02-01T09:39:02;6.40;;;2.00;;
68386;SDS011;55338;43.062;25.624;2023-02-01T09:47:19;7.35;;;1.48;;
68386;SDS011;55338;43.062;25.624;2023-02-01T09:55:32;4.30;;;1.30;;
68386;SDS011;55338;43.062;25.624;2023-02-01T09:58:21;5.47;;;2.17;;
68386;SDS011;55338;43.062;25.624;2023-02-01T10:00:57;8.38;;;2.10;;
68386;SDS011;55338;43.062;25.624;2023-02-01T10:03:26;7.63;;;2.53;;
68386;SDS011;55338;43.062;25.624;2023-02-01T10:06:19;9.38;;;2.15;;
68386;SDS011;55338;43.062;25.624;2023-02-01T10:22:39;9.75;;;3.10;;
68386;SDS011;55338;43.062;25.624;2023-02-01T10:25:53;10.20;;;2.80;;
68386;SDS011;55338;43.062;25.624;2023-02-01T10:27:57;8.15;;;2.70;;
68386;SDS011;55338;43.062;25.624;2023-02-01T10:30:31;11.43;;;2.90;;
68386;SDS011;55338;43.062;25.624;2023-02-01T10:35:44;4.85;;;1.75;;
68386;SDS011;55338;43.062;25.624;2023-02-01T10:38:17;6.75;;;1.90;;
68386;SDS011;55338;43.062;25.624;2023-02-01T10:40:52;8.43;;;1.63;;
68386;SDS011;55338;43.062;25.624;2023-02-01T10:43:22;4.25;;;1.70;;
68386;SDS011;55338;43.062;25.624;2023-02-01T10:45:48;4.45;;;1.65;;
68386;SDS011;55338;43.062;25.624;2023-02-01T10:48:13;7.13;;;1.80;;
68386;SDS011;55338;43.062;25.624;2023-02-01T10:53:18;7.95;;;2.10;;
68386;SDS011;55338;43.062;25.624;2023-02-01T10:55:50;7.97;;;2.10;;
68386;SDS011;55338;43.062;25.624;2023-02-01T10:58:18;5.55;;;1.88;;
68386;SDS011;55338;43.062;25.624;2023-02-01T11:00:54;13.20;;;2.00;;
68386;SDS011;55338;43.062;25.624;2023-02-01T11:05:59;5.30;;;2.00;;
68386;SDS011;55338;43.062;25.624;2023-02-01T11:08:26;17.23;;;2.40;;
68386;SDS011;55338;43.062;25.624;2023-02-01T11:11:02;6.28;;;1.70;;
68386;SDS011;55338;43.062;25.624;2023-02-01T11:13:32;3.33;;;1.02;;
68386;SDS011;55338;43.062;25.624;2023-02-01T11:16:03;7.22;;;1.75;;
68386;SDS011;55338;43.062;25.624;2023-02-01T11:18:37;5.43;;;1.35;;
68386;SDS011;55338;43.062;25.624;2023-02-01T11:21:07;5.50;;;1.83;;
68386;SDS011;55338;43.062;25.624;2023-02-01T11:23:39;7.55;;;1.80;;
68386;SDS011;55338;43.062;25.624;2023-02-01T11:26:14;7.72;;;2.05;;
68386;SDS011;55338;43.062;25.624;2023-02-01T11:28:53;3.47;;;1.30;;
68386;SDS011;55338;43.062;25.624;2023-02-01T11:31:30;10.77;;;1.67;;
68386;SDS011;55338;43.062;25.624;2023-02-01T11:34:07;7.45;;;1.50;;
68386;SDS011;55338;43.062;25.624;2023-02-01T11:36:42;5.15;;;1.35;;
68386;SDS011;55338;43.062;25.624;2023-02-01T11:41:43;5.07;;;1.80;;
68386;SDS011;55338;43.062;25.624;2023-02-01T11:44:27;5.75;;;1.08;;
68386;SDS011;55338;43.062;25.624;2023-02-01T11:46:55;4.32;;;1.35;;
68386;SDS011;55338;43.062;25.624;2023-02-01T11:49:57;8.98;;;1.60;;
68386;SDS011;55338;43.062;25.624;2023-02-01T12:00:39;8.95;;;1.70;;
68386;SDS011;55338;43.062;25.624;2023-02-01T12:06:54;3.05;;;1.25;;
68386;SDS011;55338;43.062;25.624;2023-02-01T12:42:34;3.38;;;1.45;;
68386;SDS011;55338;43.062;25.624;2023-02-01T12:45:13;6.10;;;1.40;;
68386;SDS011;55338;43.062;25.624;2023-02-01T12:50:43;4.32;;;1.17;;
68386;SDS011;55338;43.062;25.624;2023-02-01T12:53:50;6.05;;;1.40;;
68386;SDS011;55338;43.062;25.624;2023-02-01T12:56:09;4.90;;;1.30;;
68386;SDS011;55338;43.062;25.624;2023-02-01T12:58:44;3.05;;;1.08;;
68386;SDS011;55338;43.062;25.624;2023-02-01T13:01:27;3.20;;;0.95;;
68386;SDS011;55338;43.062;25.624;2023-02-01T13:06:49;3.53;;;1.17;;
68386;SDS011;55338;43.062;25.624;2023-02-01T13:11:51;3.47;;;1.10;;
68386;SDS011;55338;43.062;25.624;2023-02-01T13:14:32;4.82;;;1.40;;
68386;SDS011;55338;43.062;25.624;2023-02-01T13:17:05;4.30;;;1.30;;
68386;SDS011;55338;43.062;25.624;2023-02-01T13:22:25;3.25;;;1.30;;
68386;SDS011;55338;43.062;25.624;2023-02-01T13:24:57;7.38;;;1.80;;
68386;SDS011;55338;43.062;25.624;2023-02-01T13:27:37;3.90;;;1.30;;
68386;SDS011;55338;43.062;25.624;2023-02-01T13:30:15;4.22;;;1.35;;
68386;SDS011;55338;43.062;25.624;2023-02-01T13:33:07;7.22;;;1.45;;
68386;SDS011;55338;43.062;25.624;2023-02-01T13:43:58;3.78;;;1.33;;
68386;SDS011;55338;43.062;25.624;2023-02-01T13:46:28;8.00;;;1.60;;
68386;SDS011;55338;43.062;25.624;2023-02-01T13:48:55;3.95;;;1.10;;
68386;SDS011;55338;43.062;25.624;2023-02-01T13:51:42;3.50;;;1.60;;
68386;SDS011;55338;43.062;25.624;2023-02-01T13:54:24;3.88;;;1.13;;
68386;SDS011;55338;43.062;25.624;2023-02-01T13:56:55;3.92;;;1.50;;
68386;SDS011;55338;43.062;25.624;2023-02-01T14:05:02;5.80;;;2.13;;
68386;SDS011;55338;43.062;25.624;2023-02-01T14:07:28;5.57;;;1.38;;
68386;SDS011;55338;43.062;25.624;2023-02-01T14:09:55;4.50;;;1.20;;
68386;SDS011;55338;43.062;25.624;2023-02-01T14:17:44;5.10;;;1.83;;
68386;SDS011;55338;43.062;25.624;2023-02-01T14:23:20;3.10;;;0.90;;
68386;SDS011;55338;43.062;25.624;2023-02-01T14:26:00;3.75;;;1.20;;
68386;SDS011;55338;43.062;25.624;2023-02-01T14:28:29;4.47;;;1.20;;
68386;SDS011;55338;43.062;25.624;2023-02-01T14:30:56;3.63;;;0.90;;
68386;SDS011;55338;43.062;25.624;2023-02-01T14:33:23;4.47;;;1.05;;
68386;SDS011;55338;43.062;25.624;2023-02-01T14:36:02;4.38;;;0.98;;
68386;SDS011;55338;43.062;25.624;2023-02-01T14:38:32;8.52;;;1.20;;
68386;SDS011;55338;43.062;25.624;2023-02-01T14:49:29;3.50;;;1.15;;
68386;SDS011;55338;43.062;25.624;2023-02-01T14:51:57;6.20;;;1.48;;
68386;SDS011;55338;43.062;25.624;2023-02-01T14:54:24;3.70;;;0.80;;
68386;SDS011;55338;43.062;25.624;2023-02-01T14:56:51;5.47;;;1.35;;
68386;SDS011;55338;43.062;25.624;2023-02-01T14:59:20;4.85;;;1.70;;
68386;SDS011;55338;43.062;25.624;2023-02-01T15:01:53;6.45;;;1.50;;
68386;SDS011;55338;43.062;25.624;2023-02-01T15:04:24;7.03;;;1.73;;
68386;SDS011;55338;43.062;25.624;2023-02-01T15:06:55;8.23;;;2.30;;
68386;SDS011;55338;43.062;25.624;2023-02-01T15:09:27;7.80;;;2.60;;
68386;SDS011;55338;43.062;25.624;2023-02-01T15:14:26;8.68;;;1.90;;
68386;SDS011;55338;43.062;25.624;2023-02-01T15:16:53;8.80;;;1.80;;
68386;SDS011;55338;43.062;25.624;2023-02-01T15:19:23;7.47;;;2.00;;
68386;SDS011;55338;43.062;25.624;2023-02-01T15:21:52;7.30;;;1.60;;
68386;SDS011;55338;43.062;25.624;2023-02-01T15:24:27;10.40;;;1.80;;
68386;SDS011;55338;43.062;25.624;2023-02-01T15:27:02;4.68;;;1.30;;
68386;SDS011;55338;43.062;25.624;2023-02-01T15:29:32;5.15;;;1.40;;
68386;SDS011;55338;43.062;25.624;2023-02-01T15:32:01;4.97;;;1.70;;
68386;SDS011;55338;43.062;25.624;2023-02-01T15:34:46;10.43;;;1.73;;
68386;SDS011;55338;43.062;25.624;2023-02-01T15:37:15;7.03;;;1.75;;
68386;SDS011;55338;43.062;25.624;2023-02-01T15:42:30;4.05;;;1.30;;
68386;SDS011;55338;43.062;25.624;2023-02-01T15:44:56;5.80;;;1.35;;
68386;SDS011;55338;43.062;25.624;2023-02-01T15:47:25;8.75;;;1.60;;
68386;SDS011;55338;43.062;25.624;2023-02-01T15:49:55;6.97;;;1.52;;
68386;SDS011;55338;43.062;25.624;2023-02-01T15:55:06;7.57;;;2.13;;
68386;SDS011;55338;43.062;25.624;2023-02-01T15:57:43;7.45;;;1.92;;
68386;SDS011;55338;43.062;25.624;2023-02-01T16:00:23;4.80;;;1.58;;
68386;SDS011;55338;43.062;25.624;2023-02-01T16:02:56;12.82;;;2.47;;
68386;SDS011;55338;43.062;25.624;2023-02-01T16:08:00;6.90;;;2.03;;
68386;SDS011;55338;43.062;25.624;2023-02-01T16:10:41;7.13;;;2.25;;
68386;SDS011;55338;43.062;25.624;2023-02-01T16:13:11;9.15;;;2.90;;
68386;SDS011;55338;43.062;25.624;2023-02-01T16:15:38;7.25;;;3.60;;
68386;SDS011;55338;43.062;25.624;2023-02-01T16:18:04;9.57;;;3.00;;
68386;SDS011;55338;43.062;25.624;2023-02-01T16:20:32;8.38;;;3.00;;
68386;SDS011;55338;43.062;25.624;2023-02-01T16:23:00;8.98;;;3.20;;
68386;SDS011;55338;43.062;25.624;2023-02-01T16:25:27;19.52;;;3.50;;
68386;SDS011;55338;43.062;25.624;2023-02-01T16:27:53;10.45;;;3.42;;
68386;SDS011;55338;43.062;25.624;2023-02-01T16:30:19;20.67;;;4.93;;
68386;SDS011;55338;43.062;25.624;2023-02-01T16:32:54;6.18;;;2.20;;
68386;SDS011;55338;43.062;25.624;2023-02-01T16:35:30;4.40;;;1.98;;
68386;SDS011;55338;43.062;25.624;2023-02-01T16:38:01;5.95;;;2.10;;
68386;SDS011;55338;43.062;25.624;2023-02-01T16:40:37;6.50;;;2.27;;
68386;SDS011;55338;43.062;25.624;2023-02-01T16:43:13;4.95;;;2.20;;
68386;SDS011;55338;43.062;25.624;2023-02-01T16:45:44;5.20;;;1.98;;
68386;SDS011;55338;43.062;25.624;2023-02-01T16:48:24;5.13;;;1.92;;
68386;SDS011;55338;43.062;25.624;2023-02-01T16:51:03;5.68;;;1.98;;
68386;SDS011;55338;43.062;25.624;2023-02-01T16:53:33;5.63;;;1.80;;
68386;SDS011;55338;43.062;25.624;2023-02-01T16:55:59;4.03;;;1.35;;
68386;SDS011;55338;43.062;25.624;2023-02-01T16:58:26;5.32;;;1.63;;
68386;SDS011;55338;43.062;25.624;2023-02-01T17:00:52;5.13;;;2.05;;
68386;SDS011;55338;43.062;25.624;2023-02-01T17:03:19;7.85;;;2.13;;
68386;SDS011;55338;43.062;25.624;2023-02-01T17:05:53;6.78;;;2.17;;
68386;SDS011;55338;43.062;25.624;2023-02-01T17:08:32;9.55;;;2.40;;
68386;SDS011;55338;43.062;25.624;2023-02-01T17:11:00;5.05;;;2.10;;
68386;SDS011;55338;43.062;25.624;2023-02-01T17:13:27;7.32;;;2.30;;
68386;SDS011;55338;43.062;25.624;2023-02-01T17:15:53;7.53;;;2.30;;
68386;SDS011;55338;43.062;25.624;2023-02-01T17:18:26;9.90;;;2.90;;
68386;SDS011;55338;43.062;25.624;2023-02-01T17:20:58;11.65;;;3.20;;
68386;SDS011;55338;43.062;25.624;2023-02-01T17:23:24;17.33;;;4.28;;
68386;SDS011;55338;43.062;25.624;2023-02-01T17:25:50;10.43;;;3.70;;
68386;SDS011;55338;43.062;25.624;2023-02-01T17:28:16;15.65;;;2.97;;
68386;SDS011;55338;43.062;25.624;2023-02-01T17:30:42;12.95;;;3.30;;
68386;SDS011;55338;43.062;25.624;2023-02-01T17:35:51;17.27;;;3.75;;
68386;SDS011;55338;43.062;25.624;2023-02-01T17:38:19;26.30;;;4.20;;
68386;SDS011;55338;43.062;25.624;2023-02-01T17:40:45;25.38;;;4.47;;
68386;SDS011;55338;43.062;25.624;2023-02-01T17:43:14;17.23;;;4.60;;